sensor_id;sensor_type;location;lat;lon;timestamp;temperature;humidity
29713;DHT22;16623;53.632;10.016;2023-02-02T00:00:53;6.00;99.90
29713;DHT22;16623;53.632;10.016;2023-02-02T00:03:19;6.10;99.90
29713;DHT22;16623;53.632;10.016;2023-02-02T00:05:52;6.00;99.90
29713;DHT22;16623;53.632;10.016;2023-02-02T00:08:19;6.10;99.90
29713;DHT22;16623;53.632;10.016;2023-02-02T00:10:45;6.10;99.90
29713;DHT22;16623;53.632;10.016;2023-02-02T00:13:12;6.10;99.90
29713;DHT22;16623;53.632;10.016;2023-02-02T00:15:38;6.10;99.90
29713;DHT22;16623;53.632;10.016;2023-02-02T00:18:04;6.10;99.90
29713;DHT22;16623;53.632;10.016;2023-02-02T00:20:30;6.20;99.90
29713;DHT22;16623;53.632;10.016;2023-02-02T00:22:58;6.20;99.90
29713;DHT22;16623;53.632;10.016;2023-02-02T00:25:24;6.20;99.90
29713;DHT22;16623;53.632;10.016;2023-02-02T00:27:50;6.20;99.90
29713;DHT22;16623;53.632;10.016;2023-02-02T00:30:15;6.20;99.90
29713;DHT22;16623;53.632;10.016;2023-02-02T00:32:41;6.20;99.90
29713;DHT22;16623;53.632;10.016;2023-02-02T00:35:07;6.20;99.90
29713;DHT22;16623;53.632;10.016;2023-02-02T00:37:34;6.20;99.90
29713;DHT22;16623;53.632;10.016;2023-02-02T00:39:59;6.20;99.90
29713;DHT22;16623;53.632;10.016;2023-02-02T00:42:25;6.20;99.90
29713;DHT22;16623;53.632;10.016;2023-02-02T00:44:50;6.20;99.90
29713;DHT22;16623;53.632;10.016;2023-02-02T00:47:35;6.30;99.90
29713;DHT22;16623;53.632;10.016;2023-02-02T00:50:00;6.30;99.90
29713;DHT22;16623;53.632;10.016;2023-02-02T00:52:26;6.30;99.90
29713;DHT22;16623;53.632;10.016;2023-02-02T00:54:52;6.30;99.90
29713;DHT22;16623;53.632;10.016;2023-02-02T00:57:17;6.30;99.90
29713;DHT22;16623;53.632;10.016;2023-02-02T00:59:43;6.30;99.90
29713;DHT22;16623;53.632;10.016;2023-02-02T01:02:10;6.30;99.90
29713;DHT22;16623;53.632;10.016;2023-02-02T01:04:35;6.30;99.90
29713;DHT22;16623;53.632;10.016;2023-02-02T01:07:01;6.30;99.90
29713;DHT22;16623;53.632;10.016;2023-02-02T01:09:26;6.30;99.90
29713;DHT22;16623;53.632;10.016;2023-02-02T01:11:52;6.20;99.90
29713;DHT22;16623;53.632;10.016;2023-02-02T01:14:17;6.20;99.90
29713;DHT22;16623;53.632;10.016;2023-02-02T01:16:43;6.20;99.90
29713;DHT22;16623;53.632;10.016;2023-02-02T01:19:12;6.20;99.90
29713;DHT22;16623;53.632;10.016;2023-02-02T01:21:37;6.20;99.90
29713;DHT22;16623;53.632;10.016;2023-02-02T01:24:03;6.10;99.90
29713;DHT22;16623;53.632;10.016;2023-02-02T01:26:28;6.10;99.90
29713;DHT22;16623;53.632;10.016;2023-02-02T01:28:54;6.10;99.90
29713;DHT22;16623;53.632;10.016;2023-02-02T01:31:19;6.10;99.90
29713;DHT22;16623;53.632;10.016;2023-02-02T01:33:46;6.00;99.90
29713;DHT22;16623;53.632;10.016;2023-02-02T01:36:17;5.90;99.90
29713;DHT22;16623;53.632;10.016;2023-02-02T01:38:43;5.90;99.90
29713;DHT22;16623;53.632;10.016;2023-02-02T01:41:14;6.00;99.90
29713;DHT22;16623;53.632;10.016;2023-02-02T01:46:10;6.00;99.90
29713;DHT22;16623;53.632;10.016;2023-02-02T01:48:37;6.00;99.90
29713;DHT22;16623;53.632;10.016;2023-02-02T01:51:06;6.10;99.90
29713;DHT22;16623;53.632;10.016;2023-02-02T01:53:33;6.00;99.90
29713;DHT22;16623;53.632;10.016;2023-02-02T01:56:00;6.00;99.90
29713;DHT22;16623;53.632;10.016;2023-02-02T01:58:30;6.00;99.90
29713;DHT22;16623;53.632;10.016;2023-02-02T02:00:57;6.00;99.90
29713;DHT22;16623;53.632;10.016;2023-02-02T02:03:26;5.90;99.90
29713;DHT22;16623;53.632;10.016;2023-02-02T02:05:57;5.90;99.90
29713;DHT22;16623;53.632;10.016;2023-02-02T02:08:27;5.90;99.90
29713;DHT22;16623;53.632;10.016;2023-02-02T02:10:54;5.80;99.90
29713;DHT22;16623;53.632;10.016;2023-02-02T02:13:22;5.90;99.90
29713;DHT22;16623;53.632;10.016;2023-02-02T02:19:14;5.80;99.90
29713;DHT22;16623;53.632;10.016;2023-02-02T02:22:07;5.80;99.90
29713;DHT22;16623;53.632;10.016;2023-02-02T02:25:24;5.80;99.90
29713;DHT22;16623;53.632;10.016;2023-02-02T02:28:50;5.70;99.90
29713;DHT22;16623;53.632;10.016;2023-02-02T02:31:46;5.70;99.90
29713;DHT22;16623;53.632;10.016;2023-02-02T02:37:15;5.70;99.90
29713;DHT22;16623;53.632;10.016;2023-02-02T02:39:49;5.60;99.90
29713;DHT22;16623;53.632;10.016;2023-02-02T02:42:21;5.60;99.90
29713;DHT22;16623;53.632;10.016;2023-02-02T02:44:48;5.60;99.90
29713;DHT22;16623;53.632;10.016;2023-02-02T02:47:16;5.60;99.90
29713;DHT22;16623;53.632;10.016;2023-02-02T02:49:46;5.50;99.90
29713;DHT22;16623;53.632;10.016;2023-02-02T02:52:13;5.50;99.90
29713;DHT22;16623;53.632;10.016;2023-02-02T02:54:47;5.50;99.90
29713;DHT22;16623;53.632;10.016;2023-02-02T03:00:34;5.50;99.90
29713;DHT22;16623;53.632;10.016;2023-02-02T03:06:16;5.60;99.90
29713;DHT22;16623;53.632;10.016;2023-02-02T03:08:57;5.60;99.90
29713;DHT22;16623;53.632;10.016;2023-02-02T03:11:24;5.60;99.90
29713;DHT22;16623;53.632;10.016;2023-02-02T03:13:50;5.70;99.90
29713;DHT22;16623;53.632;10.016;2023-02-02T03:16:16;5.70;99.90
29713;DHT22;16623;53.632;10.016;2023-02-02T03:18:41;5.80;99.90
29713;DHT22;16623;53.632;10.016;2023-02-02T03:21:07;5.70;99.90
29713;DHT22;16623;53.632;10.016;2023-02-02T03:23:33;5.60;99.90
29713;DHT22;16623;53.632;10.016;2023-02-02T03:25:58;5.40;99.90
29713;DHT22;16623;53.632;10.016;2023-02-02T03:28:25;5.30;99.90
29713;DHT22;16623;53.632;10.016;2023-02-02T03:30:52;7.30;99.90
29713;DHT22;16623;53.632;10.016;2023-02-02T03:33:18;5.20;99.90
29713;DHT22;16623;53.632;10.016;2023-02-02T03:35:45;5.20;99.90
29713;DHT22;16623;53.632;10.016;2023-02-02T03:38:10;5.30;99.90
29713;DHT22;16623;53.632;10.016;2023-02-02T03:40:37;5.20;99.90
29713;DHT22;16623;53.632;10.016;2023-02-02T03:43:03;5.30;99.90
29713;DHT22;16623;53.632;10.016;2023-02-02T03:45:32;5.30;99.90
29713;DHT22;16623;53.632;10.016;2023-02-02T03:48:01;5.30;99.90
29713;DHT22;16623;53.632;10.016;2023-02-02T03:50:28;5.40;99.90
29713;DHT22;16623;53.632;10.016;2023-02-02T03:52:54;5.40;99.90
29713;DHT22;16623;53.632;10.016;2023-02-02T03:55:20;5.30;99.90
29713;DHT22;16623;53.632;10.016;2023-02-02T03:57:45;5.30;99.90
29713;DHT22;16623;53.632;10.016;2023-02-02T04:00:11;5.30;99.90
29713;DHT22;16623;53.632;10.016;2023-02-02T04:02:37;5.40;99.90
29713;DHT22;16623;53.632;10.016;2023-02-02T04:05:02;5.40;99.90
29713;DHT22;16623;53.632;10.016;2023-02-02T04:07:28;5.50;99.90
29713;DHT22;16623;53.632;10.016;2023-02-02T04:09:53;5.40;99.90
29713;DHT22;16623;53.632;10.016;2023-02-02T04:12:19;5.40;99.90
29713;DHT22;16623;53.632;10.016;2023-02-02T04:14:44;5.40;99.90
29713;DHT22;16623;53.632;10.016;2023-02-02T04:17:10;5.40;99.90
29713;DHT22;16623;53.632;10.016;2023-02-02T04:19:35;5.40;99.90
29713;DHT22;16623;53.632;10.016;2023-02-02T04:22:01;5.40;99.90
29713;DHT22;16623;53.632;10.016;2023-02-02T04:24:26;5.40;99.90
29713;DHT22;16623;53.632;10.016;2023-02-02T04:26:52;5.40;99.90
29713;DHT22;16623;53.632;10.016;2023-02-02T04:29:17;5.40;99.90
29713;DHT22;16623;53.632;10.016;2023-02-02T04:31:43;5.40;99.90
29713;DHT22;16623;53.632;10.016;2023-02-02T04:34:09;5.40;99.90
29713;DHT22;16623;53.632;10.016;2023-02-02T04:36:34;5.40;99.90
29713;DHT22;16623;53.632;10.016;2023-02-02T04:39:00;5.40;99.90
29713;DHT22;16623;53.632;10.016;2023-02-02T04:41:25;5.40;99.90
29713;DHT22;16623;53.632;10.016;2023-02-02T04:43:51;5.40;99.90
29713;DHT22;16623;53.632;10.016;2023-02-02T04:46:17;5.40;99.90
29713;DHT22;16623;53.632;10.016;2023-02-02T04:48:42;5.40;99.90
29713;DHT22;16623;53.632;10.016;2023-02-02T04:51:13;5.40;99.90
29713;DHT22;16623;53.632;10.016;2023-02-02T04:53:39;5.40;99.90
29713;DHT22;16623;53.632;10.016;2023-02-02T04:56:17;5.40;99.90
29713;DHT22;16623;53.632;10.016;2023-02-02T04:58:43;5.30;99.90
29713;DHT22;16623;53.632;10.016;2023-02-02T05:01:11;5.30;99.90
29713;DHT22;16623;53.632;10.016;2023-02-02T05:03:37;5.30;99.90
29713;DHT22;16623;53.632;10.016;2023-02-02T05:06:03;5.30;99.90
29713;DHT22;16623;53.632;10.016;2023-02-02T05:08:29;5.30;99.90
29713;DHT22;16623;53.632;10.016;2023-02-02T05:10:55;5.30;99.90
29713;DHT22;16623;53.632;10.016;2023-02-02T05:13:21;5.40;99.90
29713;DHT22;16623;53.632;10.016;2023-02-02T05:15:47;5.40;99.90
29713;DHT22;16623;53.632;10.016;2023-02-02T05:18:12;5.40;99.90
29713;DHT22;16623;53.632;10.016;2023-02-02T05:20:38;5.40;99.90
29713;DHT22;16623;53.632;10.016;2023-02-02T05:23:03;5.40;99.90
29713;DHT22;16623;53.632;10.016;2023-02-02T05:25:29;5.50;99.90
29713;DHT22;16623;53.632;10.016;2023-02-02T05:27:54;5.40;99.90
29713;DHT22;16623;53.632;10.016;2023-02-02T05:30:20;5.40;99.90
29713;DHT22;16623;53.632;10.016;2023-02-02T05:32:45;5.30;99.90
29713;DHT22;16623;53.632;10.016;2023-02-02T05:35:11;5.30;99.90
29713;DHT22;16623;53.632;10.016;2023-02-02T05:37:36;5.30;99.90
29713;DHT22;16623;53.632;10.016;2023-02-02T05:40:02;5.30;99.90
29713;DHT22;16623;53.632;10.016;2023-02-02T05:42:28;5.30;99.90
29713;DHT22;16623;53.632;10.016;2023-02-02T05:44:54;5.30;99.90
29713;DHT22;16623;53.632;10.016;2023-02-02T05:47:20;5.30;99.90
29713;DHT22;16623;53.632;10.016;2023-02-02T05:49:46;5.30;99.90
29713;DHT22;16623;53.632;10.016;2023-02-02T05:52:17;5.30;99.90
29713;DHT22;16623;53.632;10.016;2023-02-02T05:54:43;5.40;99.90
29713;DHT22;16623;53.632;10.016;2023-02-02T05:57:15;5.40;99.90
29713;DHT22;16623;53.632;10.016;2023-02-02T05:59:40;5.40;99.90
29713;DHT22;16623;53.632;10.016;2023-02-02T06:02:06;5.50;99.90
29713;DHT22;16623;53.632;10.016;2023-02-02T06:04:31;5.50;99.90
29713;DHT22;16623;53.632;10.016;2023-02-02T06:06:57;5.40;99.90
29713;DHT22;16623;53.632;10.016;2023-02-02T06:09:25;5.30;99.90
29713;DHT22;16623;53.632;10.016;2023-02-02T06:11:50;5.30;99.90
29713;DHT22;16623;53.632;10.016;2023-02-02T06:14:16;5.30;99.90
29713;DHT22;16623;53.632;10.016;2023-02-02T06:16:41;5.40;99.90
29713;DHT22;16623;53.632;10.016;2023-02-02T06:19:07;5.40;99.90
29713;DHT22;16623;53.632;10.016;2023-02-02T06:21:32;5.40;99.90
29713;DHT22;16623;53.632;10.016;2023-02-02T06:23:58;5.50;99.90
29713;DHT22;16623;53.632;10.016;2023-02-02T06:26:24;5.50;99.90
29713;DHT22;16623;53.632;10.016;2023-02-02T06:28:52;5.50;99.90
29713;DHT22;16623;53.632;10.016;2023-02-02T06:31:18;5.50;99.90
29713;DHT22;16623;53.632;10.016;2023-02-02T06:33:45;5.60;99.90
29713;DHT22;16623;53.632;10.016;2023-02-02T06:36:11;5.60;99.90
29713;DHT22;16623;53.632;10.016;2023-02-02T06:38:37;5.60;99.90
29713;DHT22;16623;53.632;10.016;2023-02-02T06:41:02;5.60;99.90
29713;DHT22;16623;53.632;10.016;2023-02-02T06:43:29;5.60;99.90
29713;DHT22;16623;53.632;10.016;2023-02-02T06:45:56;5.60;99.90
29713;DHT22;16623;53.632;10.016;2023-02-02T06:48:22;5.70;99.90
29713;DHT22;16623;53.632;10.016;2023-02-02T06:50:48;5.70;99.90
29713;DHT22;16623;53.632;10.016;2023-02-02T06:53:14;5.70;99.90
29713;DHT22;16623;53.632;10.016;2023-02-02T06:55:40;5.60;99.90
29713;DHT22;16623;53.632;10.016;2023-02-02T06:58:05;5.60;99.90
29713;DHT22;16623;53.632;10.016;2023-02-02T07:00:31;5.60;99.90
29713;DHT22;16623;53.632;10.016;2023-02-02T07:02:57;5.60;99.90
29713;DHT22;16623;53.632;10.016;2023-02-02T07:05:23;5.50;99.90
29713;DHT22;16623;53.632;10.016;2023-02-02T07:07:49;5.50;99.90
29713;DHT22;16623;53.632;10.016;2023-02-02T07:10:16;5.50;99.90
29713;DHT22;16623;53.632;10.016;2023-02-02T07:12:41;5.50;99.90
29713;DHT22;16623;53.632;10.016;2023-02-02T07:15:07;5.50;99.90
29713;DHT22;16623;53.632;10.016;2023-02-02T07:17:33;5.50;99.90
29713;DHT22;16623;53.632;10.016;2023-02-02T07:19:59;5.40;99.90
29713;DHT22;16623;53.632;10.016;2023-02-02T07:22:24;5.40;99.90
29713;DHT22;16623;53.632;10.016;2023-02-02T07:24:50;5.40;99.90
29713;DHT22;16623;53.632;10.016;2023-02-02T07:27:15;5.30;99.90
29713;DHT22;16623;53.632;10.016;2023-02-02T07:29:41;6.90;99.90
29713;DHT22;16623;53.632;10.016;2023-02-02T07:32:07;5.30;99.90
29713;DHT22;16623;53.632;10.016;2023-02-02T07:34:35;5.30;99.90
29713;DHT22;16623;53.632;10.016;2023-02-02T07:37:01;5.30;99.90
29713;DHT22;16623;53.632;10.016;2023-02-02T07:39:27;5.30;99.90
29713;DHT22;16623;53.632;10.016;2023-02-02T07:41:53;5.30;99.90
29713;DHT22;16623;53.632;10.016;2023-02-02T07:44:19;5.40;99.90
29713;DHT22;16623;53.632;10.016;2023-02-02T07:46:46;5.40;99.90
29713;DHT22;16623;53.632;10.016;2023-02-02T07:49:14;5.40;99.90
29713;DHT22;16623;53.632;10.016;2023-02-02T07:51:40;5.40;99.90
29713;DHT22;16623;53.632;10.016;2023-02-02T07:54:06;5.50;99.90
29713;DHT22;16623;53.632;10.016;2023-02-02T07:56:31;5.60;99.90
29713;DHT22;16623;53.632;10.016;2023-02-02T07:58:57;5.60;99.90
29713;DHT22;16623;53.632;10.016;2023-02-02T08:01:24;5.60;99.90
29713;DHT22;16623;53.632;10.016;2023-02-02T08:03:51;5.70;99.90
29713;DHT22;16623;53.632;10.016;2023-02-02T08:06:26;5.60;99.90
29713;DHT22;16623;53.632;10.016;2023-02-02T08:08:56;5.60;99.90
29713;DHT22;16623;53.632;10.016;2023-02-02T08:11:23;5.60;99.90
29713;DHT22;16623;53.632;10.016;2023-02-02T08:13:50;5.60;99.90
29713;DHT22;16623;53.632;10.016;2023-02-02T08:16:16;5.60;99.90
29713;DHT22;16623;53.632;10.016;2023-02-02T08:18:42;5.60;99.90
29713;DHT22;16623;53.632;10.016;2023-02-02T08:21:08;5.60;99.90
29713;DHT22;16623;53.632;10.016;2023-02-02T08:23:35;5.60;99.90
29713;DHT22;16623;53.632;10.016;2023-02-02T08:26:37;5.60;99.90
29713;DHT22;16623;53.632;10.016;2023-02-02T08:28:58;5.70;99.90
29713;DHT22;16623;53.632;10.016;2023-02-02T08:31:27;5.70;99.90
29713;DHT22;16623;53.632;10.016;2023-02-02T08:33:53;5.70;99.90
29713;DHT22;16623;53.632;10.016;2023-02-02T08:36:21;5.80;99.90
29713;DHT22;16623;53.632;10.016;2023-02-02T08:38:47;5.80;99.90
29713;DHT22;16623;53.632;10.016;2023-02-02T08:41:15;5.80;99.90
29713;DHT22;16623;53.632;10.016;2023-02-02T08:43:41;5.80;99.90
29713;DHT22;16623;53.632;10.016;2023-02-02T08:46:09;5.80;99.90
29713;DHT22;16623;53.632;10.016;2023-02-02T08:48:35;5.80;99.90
29713;DHT22;16623;53.632;10.016;2023-02-02T08:51:02;5.90;99.90
29713;DHT22;16623;53.632;10.016;2023-02-02T08:53:28;5.90;99.90
29713;DHT22;16623;53.632;10.016;2023-02-02T08:56:00;7.10;99.90
29713;DHT22;16623;53.632;10.016;2023-02-02T08:58:26;6.00;99.90
29713;DHT22;16623;53.632;10.016;2023-02-02T09:00:51;6.00;99.90
29713;DHT22;16623;53.632;10.016;2023-02-02T09:03:17;6.00;99.90
29713;DHT22;16623;53.632;10.016;2023-02-02T09:05:43;6.00;99.90
29713;DHT22;16623;53.632;10.016;2023-02-02T09:08:08;6.20;99.90
29713;DHT22;16623;53.632;10.016;2023-02-02T09:10:35;6.20;99.90
29713;DHT22;16623;53.632;10.016;2023-02-02T09:13:02;6.20;99.90
29713;DHT22;16623;53.632;10.016;2023-02-02T09:15:27;6.20;99.90
29713;DHT22;16623;53.632;10.016;2023-02-02T09:17:53;6.30;99.90
29713;DHT22;16623;53.632;10.016;2023-02-02T09:20:18;6.30;99.90
29713;DHT22;16623;53.632;10.016;2023-02-02T09:22:44;6.30;99.90
29713;DHT22;16623;53.632;10.016;2023-02-02T09:25:11;6.40;99.90
29713;DHT22;16623;53.632;10.016;2023-02-02T09:27:37;6.30;99.90
29713;DHT22;16623;53.632;10.016;2023-02-02T09:30:04;6.40;99.90
29713;DHT22;16623;53.632;10.016;2023-02-02T09:34:55;6.50;99.90
29713;DHT22;16623;53.632;10.016;2023-02-02T09:37:21;6.50;99.90
29713;DHT22;16623;53.632;10.016;2023-02-02T09:39:46;6.60;99.90
29713;DHT22;16623;53.632;10.016;2023-02-02T09:42:38;6.60;99.90
29713;DHT22;16623;53.632;10.016;2023-02-02T09:45:44;6.60;99.90
29713;DHT22;16623;53.632;10.016;2023-02-02T09:48:39;6.70;99.90
29713;DHT22;16623;53.632;10.016;2023-02-02T09:51:12;6.70;99.90
29713;DHT22;16623;53.632;10.016;2023-02-02T09:53:51;8.30;99.90
29713;DHT22;16623;53.632;10.016;2023-02-02T09:56:37;6.80;99.90
29713;DHT22;16623;53.632;10.016;2023-02-02T09:59:05;6.80;99.90
29713;DHT22;16623;53.632;10.016;2023-02-02T10:01:34;6.90;99.90
29713;DHT22;16623;53.632;10.016;2023-02-02T10:04:12;7.00;99.90
29713;DHT22;16623;53.632;10.016;2023-02-02T10:06:55;7.20;99.90
29713;DHT22;16623;53.632;10.016;2023-02-02T10:11:54;7.60;99.90
29713;DHT22;16623;53.632;10.016;2023-02-02T10:14:41;7.90;99.90
29713;DHT22;16623;53.632;10.016;2023-02-02T10:22:39;8.60;99.90
29713;DHT22;16623;53.632;10.016;2023-02-02T10:25:11;8.90;99.90
29713;DHT22;16623;53.632;10.016;2023-02-02T10:27:38;9.30;99.90
29713;DHT22;16623;53.632;10.016;2023-02-02T10:30:28;9.50;99.90
29713;DHT22;16623;53.632;10.016;2023-02-02T10:33:04;9.90;99.90
29713;DHT22;16623;53.632;10.016;2023-02-02T10:35:55;9.90;99.90
29713;DHT22;16623;53.632;10.016;2023-02-02T10:38:49;9.70;99.90
29713;DHT22;16623;53.632;10.016;2023-02-02T10:41:21;9.80;99.90
29713;DHT22;16623;53.632;10.016;2023-02-02T10:44:04;10.00;99.90
29713;DHT22;16623;53.632;10.016;2023-02-02T10:46:39;9.80;99.90
29713;DHT22;16623;53.632;10.016;2023-02-02T10:52:15;9.50;99.90
29713;DHT22;16623;53.632;10.016;2023-02-02T10:55:01;9.10;99.90
29713;DHT22;16623;53.632;10.016;2023-02-02T10:58:05;9.00;99.90
29713;DHT22;16623;53.632;10.016;2023-02-02T11:00:46;8.70;99.90
29713;DHT22;16623;53.632;10.016;2023-02-02T11:03:18;8.60;99.90
29713;DHT22;16623;53.632;10.016;2023-02-02T11:05:45;8.40;99.90
29713;DHT22;16623;53.632;10.016;2023-02-02T11:08:47;8.50;99.90
29713;DHT22;16623;53.632;10.016;2023-02-02T11:11:20;8.40;99.90
29713;DHT22;16623;53.632;10.016;2023-02-02T11:13:51;8.30;99.90
29713;DHT22;16623;53.632;10.016;2023-02-02T11:16:21;8.30;99.90
29713;DHT22;16623;53.632;10.016;2023-02-02T11:18:47;8.30;99.90
29713;DHT22;16623;53.632;10.016;2023-02-02T11:21:18;8.20;99.90
29713;DHT22;16623;53.632;10.016;2023-02-02T11:26:23;7.90;99.90
29713;DHT22;16623;53.632;10.016;2023-02-02T11:28:51;7.90;99.90
29713;DHT22;16623;53.632;10.016;2023-02-02T11:31:33;7.90;99.90
29713;DHT22;16623;53.632;10.016;2023-02-02T11:34:21;7.90;99.90
29713;DHT22;16623;53.632;10.016;2023-02-02T11:37:04;8.00;99.90
29713;DHT22;16623;53.632;10.016;2023-02-02T11:39:35;8.10;99.90
29713;DHT22;16623;53.632;10.016;2023-02-02T11:42:06;8.10;99.90
29713;DHT22;16623;53.632;10.016;2023-02-02T11:44:33;8.10;99.90
29713;DHT22;16623;53.632;10.016;2023-02-02T11:47:02;8.20;99.90
29713;DHT22;16623;53.632;10.016;2023-02-02T11:49:37;8.20;99.90
29713;DHT22;16623;53.632;10.016;2023-02-02T11:52:15;8.10;99.90
29713;DHT22;16623;53.632;10.016;2023-02-02T11:54:46;8.20;99.90
29713;DHT22;16623;53.632;10.016;2023-02-02T11:57:19;8.20;99.90
29713;DHT22;16623;53.632;10.016;2023-02-02T11:59:49;8.20;99.90
29713;DHT22;16623;53.632;10.016;2023-02-02T12:04:45;8.10;99.90
29713;DHT22;16623;53.632;10.016;2023-02-02T12:07:29;7.90;99.90
29713;DHT22;16623;53.632;10.016;2023-02-02T12:09:59;8.00;99.90
29713;DHT22;16623;53.632;10.016;2023-02-02T12:15:30;8.00;99.90
29713;DHT22;16623;53.632;10.016;2023-02-02T12:24:19;8.20;99.90
29713;DHT22;16623;53.632;10.016;2023-02-02T12:27:00;8.30;99.90
29713;DHT22;16623;53.632;10.016;2023-02-02T12:29:52;8.30;99.90
29713;DHT22;16623;53.632;10.016;2023-02-02T12:38:08;8.70;99.90
29713;DHT22;16623;53.632;10.016;2023-02-02T12:40:54;8.90;99.90
29713;DHT22;16623;53.632;10.016;2023-02-02T12:43:39;8.90;99.90
29713;DHT22;16623;53.632;10.016;2023-02-02T12:49:18;9.00;99.90
29713;DHT22;16623;53.632;10.016;2023-02-02T12:54:53;8.80;99.90
29713;DHT22;16623;53.632;10.016;2023-02-02T13:00:30;8.40;99.90
29713;DHT22;16623;53.632;10.016;2023-02-02T13:06:14;8.00;99.90
29713;DHT22;16623;53.632;10.016;2023-02-02T13:08:54;7.90;99.90
29713;DHT22;16623;53.632;10.016;2023-02-02T13:11:53;7.90;99.90
29713;DHT22;16623;53.632;10.016;2023-02-02T13:14:24;7.80;99.90
29713;DHT22;16623;53.632;10.016;2023-02-02T13:17:04;7.70;99.90
29713;DHT22;16623;53.632;10.016;2023-02-02T13:19:43;7.70;99.90
29713;DHT22;16623;53.632;10.016;2023-02-02T13:22:17;7.60;99.90
29713;DHT22;16623;53.632;10.016;2023-02-02T13:24:47;7.60;99.90
29713;DHT22;16623;53.632;10.016;2023-02-02T13:27:19;7.70;99.90
29713;DHT22;16623;53.632;10.016;2023-02-02T13:30:02;7.70;99.90
29713;DHT22;16623;53.632;10.016;2023-02-02T13:32:32;7.80;99.90
29713;DHT22;16623;53.632;10.016;2023-02-02T13:35:24;8.10;99.90
29713;DHT22;16623;53.632;10.016;2023-02-02T13:37:57;8.10;99.90
29713;DHT22;16623;53.632;10.016;2023-02-02T13:40:41;8.20;99.90
29713;DHT22;16623;53.632;10.016;2023-02-02T13:43:20;8.30;99.90
29713;DHT22;16623;53.632;10.016;2023-02-02T13:48:31;8.40;99.90
29713;DHT22;16623;53.632;10.016;2023-02-02T13:51:03;8.40;99.90
29713;DHT22;16623;53.632;10.016;2023-02-02T13:53:56;8.40;99.90
29713;DHT22;16623;53.632;10.016;2023-02-02T14:01:30;8.40;99.90
29713;DHT22;16623;53.632;10.016;2023-02-02T14:03:56;8.40;99.90
29713;DHT22;16623;53.632;10.016;2023-02-02T14:06:26;8.20;99.90
29713;DHT22;16623;53.632;10.016;2023-02-02T14:08:58;8.20;99.90
29713;DHT22;16623;53.632;10.016;2023-02-02T14:11:26;8.00;99.90
29713;DHT22;16623;53.632;10.016;2023-02-02T14:13:57;8.00;99.90
29713;DHT22;16623;53.632;10.016;2023-02-02T14:16:48;8.00;99.90
29713;DHT22;16623;53.632;10.016;2023-02-02T14:20:01;8.00;99.90
29713;DHT22;16623;53.632;10.016;2023-02-02T14:24:40;7.90;99.90
29713;DHT22;16623;53.632;10.016;2023-02-02T14:38:07;7.80;99.90
29713;DHT22;16623;53.632;10.016;2023-02-02T14:40:51;7.70;99.90
29713;DHT22;16623;53.632;10.016;2023-02-02T14:43:44;7.70;99.90
29713;DHT22;16623;53.632;10.016;2023-02-02T14:51:45;7.70;99.90
29713;DHT22;16623;53.632;10.016;2023-02-02T14:54:38;7.50;99.90
29713;DHT22;16623;53.632;10.016;2023-02-02T14:57:26;7.50;99.90
29713;DHT22;16623;53.632;10.016;2023-02-02T14:59:53;7.50;99.90
29713;DHT22;16623;53.632;10.016;2023-02-02T15:02:32;7.50;99.90
29713;DHT22;16623;53.632;10.016;2023-02-02T15:08:07;7.40;99.90
29713;DHT22;16623;53.632;10.016;2023-02-02T15:10:58;7.50;99.90
29713;DHT22;16623;53.632;10.016;2023-02-02T15:13:27;7.40;99.90
29713;DHT22;16623;53.632;10.016;2023-02-02T15:16:09;7.40;99.90
29713;DHT22;16623;53.632;10.016;2023-02-02T15:18:48;7.40;99.90
29713;DHT22;16623;53.632;10.016;2023-02-02T15:21:19;7.30;99.90
29713;DHT22;16623;53.632;10.016;2023-02-02T15:23:46;7.20;99.90
29713;DHT22;16623;53.632;10.016;2023-02-02T15:26:31;7.20;99.90
29713;DHT22;16623;53.632;10.016;2023-02-02T15:29:01;7.10;99.90
29713;DHT22;16623;53.632;10.016;2023-02-02T15:34:13;7.00;99.90
29713;DHT22;16623;53.632;10.016;2023-02-02T15:36:43;7.00;99.90
29713;DHT22;16623;53.632;10.016;2023-02-02T15:39:18;7.00;99.90
29713;DHT22;16623;53.632;10.016;2023-02-02T15:41:53;6.90;99.90
29713;DHT22;16623;53.632;10.016;2023-02-02T15:44:39;6.90;99.90
29713;DHT22;16623;53.632;10.016;2023-02-02T15:47:13;6.80;99.90
29713;DHT22;16623;53.632;10.016;2023-02-02T15:49:39;6.80;99.90
29713;DHT22;16623;53.632;10.016;2023-02-02T15:52:25;6.80;99.90
29713;DHT22;16623;53.632;10.016;2023-02-02T15:57:32;6.70;99.90
29713;DHT22;16623;53.632;10.016;2023-02-02T15:59:59;6.50;99.90
29713;DHT22;16623;53.632;10.016;2023-02-02T16:02:36;6.50;99.90
29713;DHT22;16623;53.632;10.016;2023-02-02T16:07:47;6.40;99.90
29713;DHT22;16623;53.632;10.016;2023-02-02T16:10:20;6.40;99.90
29713;DHT22;16623;53.632;10.016;2023-02-02T16:12:47;6.30;99.90
29713;DHT22;16623;53.632;10.016;2023-02-02T16:15:21;6.30;99.90
29713;DHT22;16623;53.632;10.016;2023-02-02T16:18:04;6.30;99.90
29713;DHT22;16623;53.632;10.016;2023-02-02T16:20:33;6.20;99.90
29713;DHT22;16623;53.632;10.016;2023-02-02T16:23:01;6.20;99.90
29713;DHT22;16623;53.632;10.016;2023-02-02T16:25:31;6.10;99.90
29713;DHT22;16623;53.632;10.016;2023-02-02T16:27:58;6.10;99.90
29713;DHT22;16623;53.632;10.016;2023-02-02T16:30:31;6.00;99.90
29713;DHT22;16623;53.632;10.016;2023-02-02T16:32:57;6.10;99.90
29713;DHT22;16623;53.632;10.016;2023-02-02T16:35:34;6.00;99.90
29713;DHT22;16623;53.632;10.016;2023-02-02T16:38:21;5.90;99.90
29713;DHT22;16623;53.632;10.016;2023-02-02T16:40:48;5.90;99.90
29713;DHT22;16623;53.632;10.016;2023-02-02T16:43:19;5.80;99.90
29713;DHT22;16623;53.632;10.016;2023-02-02T16:45:50;5.90;99.90
29713;DHT22;16623;53.632;10.016;2023-02-02T16:56:42;5.70;99.90
29713;DHT22;16623;53.632;10.016;2023-02-02T16:59:24;5.80;99.90
29713;DHT22;16623;53.632;10.016;2023-02-02T17:01:55;5.70;99.90
29713;DHT22;16623;53.632;10.016;2023-02-02T17:04:30;5.70;99.90
29713;DHT22;16623;53.632;10.016;2023-02-02T17:07:05;5.70;99.90
29713;DHT22;16623;53.632;10.016;2023-02-02T17:09:33;5.70;99.90
29713;DHT22;16623;53.632;10.016;2023-02-02T17:12:23;5.60;99.90
29713;DHT22;16623;53.632;10.016;2023-02-02T17:14:53;5.60;99.90
29713;DHT22;16623;53.632;10.016;2023-02-02T17:17:21;5.60;99.90
29713;DHT22;16623;53.632;10.016;2023-02-02T17:19:47;5.50;99.90
29713;DHT22;16623;53.632;10.016;2023-02-02T17:22:13;5.50;99.90
29713;DHT22;16623;53.632;10.016;2023-02-02T17:24:46;5.50;99.90
29713;DHT22;16623;53.632;10.016;2023-02-02T17:27:19;5.40;99.90
29713;DHT22;16623;53.632;10.016;2023-02-02T17:29:46;5.40;99.90
29713;DHT22;16623;53.632;10.016;2023-02-02T17:32:15;5.30;99.90
29713;DHT22;16623;53.632;10.016;2023-02-02T17:34:40;5.40;99.90
29713;DHT22;16623;53.632;10.016;2023-02-02T17:37:06;5.30;99.90
29713;DHT22;16623;53.632;10.016;2023-02-02T17:39:31;5.40;99.90